Snowmass Village, Colorado
Current Conditions -  °F | °C
As of 12:02 AM on Monday 22 Dec 2014 (Local Time) from KASE Reporting Station
Light Snow Light Snow  
Wind Chill: 21°   Ceiling: 3200
Heat Index: 30°   Visibility: 7mi
Dew Point: 28°   Wind: 10mph
Humidity: 92%   Direction: 360°N
Pressure: 29.79"   Gusts: NA
Location:  39.21°N, 106.94°W
Report Text: KASE 220702Z AUTO 36009KT 7SM -SN FEW005 BKN032 OVC039 M01/M02 A2979 RMK AO2 P0000 T10111022
Loading
Personal Weather Stations






























Interactive Weather Map New forecast layout! Learn more

10-Day Weather Forecast

Advertisements
Track Severe Weather on mobile